Time;durP1;ratioP1;P1;durP2;ratioP2;P2;SDS_P1;SDS_P2;PMS_P1;PMS_P2;Temp;Humidity;BMP_temperature;BMP_pressure;BME280_temperature;BME280_humidity;BME280_pressure;Samples;Min_cycle;Max_cycle;Signal;HPM_P1;HPM_P2
2023/02/06 00:00:57;;;;;;;58.38;7.78;;;;;;;1.89;100.00;104284.84;5263091;28;20070;-77
2023/02/06 00:03:27;;;;;;;65.30;8.63;;;;;;;1.87;100.00;104286.66;5259226;28;20484;-77
2023/02/06 00:05:59;;;;;;;53.95;6.35;;;;;;;1.91;100.00;104283.06;5268127;28;20030;-77
2023/02/06 00:08:30;;;;;;;54.47;7.15;;;;;;;2.00;100.00;104276.69;5260384;28;20030;-78
2023/02/06 00:11:04;;;;;;;64.07;8.95;;;;;;;2.02;100.00;104285.50;5248148;28;20224;-77
2023/02/06 00:13:35;;;;;;;48.93;7.03;;;;;;;1.99;100.00;104275.81;5265696;28;20444;-77
2023/02/06 00:16:15;;;;;;;52.17;6.50;;;;;;;1.95;100.00;104273.25;5265714;28;20157;-77
2023/02/06 00:18:46;;;;;;;41.33;5.20;;;;;;;1.90;100.00;104280.41;5279716;28;20020;-77
2023/02/06 00:21:19;;;;;;;53.88;6.82;;;;;;;1.89;100.00;104276.03;5265580;28;20497;-77
2023/02/06 00:23:51;;;;;;;53.30;7.20;;;;;;;1.89;100.00;104273.38;5247519;28;20038;-77
2023/02/06 00:26:23;;;;;;;48.97;6.45;;;;;;;1.83;100.00;104273.47;5265532;28;20032;-78
2023/02/06 00:28:53;;;;;;;48.65;6.90;;;;;;;1.80;100.00;104269.09;5272759;28;20023;-77
2023/02/06 00:31:24;;;;;;;64.43;8.15;;;;;;;1.77;100.00;104279.75;5289619;28;20032;-77
2023/02/06 00:33:55;;;;;;;39.97;5.28;;;;;;;1.70;100.00;104271.03;5282027;28;20024;-77
2023/02/06 00:36:25;;;;;;;56.83;6.60;;;;;;;1.69;100.00;104266.63;5269527;28;20024;-77
2023/02/06 00:38:56;;;;;;;70.38;7.10;;;;;;;1.77;100.00;104270.03;5270121;28;20385;-77
2023/02/06 00:41:27;;;;;;;64.50;7.72;;;;;;;1.82;100.00;104272.63;5272738;28;20028;-77
2023/02/06 00:43:58;;;;;;;49.60;6.82;;;;;;;1.85;100.00;104274.31;5279350;28;20032;-78
2023/02/06 00:46:28;;;;;;;43.85;6.38;;;;;;;1.81;100.00;104262.94;5268083;28;20024;-77
2023/02/06 00:48:58;;;;;;;50.50;5.75;;;;;;;1.77;100.00;104275.34;5268508;28;20028;-78
2023/02/06 00:51:29;;;;;;;59.38;7.57;;;;;;;1.75;100.00;104263.88;5268128;28;20024;-77
2023/02/06 00:53:59;;;;;;;61.65;8.32;;;;;;;1.71;100.00;104270.16;5268629;28;20028;-77
2023/02/06 00:56:30;;;;;;;57.10;6.13;;;;;;;1.75;100.00;104271.81;5267787;28;20108;-77
2023/02/06 00:59:00;;;;;;;60.50;6.82;;;;;;;1.72;100.00;104266.59;5269886;28;20324;-77
2023/02/06 01:01:31;;;;;;;49.78;6.30;;;;;;;1.72;100.00;104266.59;5289663;28;20146;-77
2023/02/06 01:04:01;;;;;;;42.92;6.70;;;;;;;1.70;100.00;104267.50;5268297;28;20031;-78
2023/02/06 01:06:32;;;;;;;51.10;7.20;;;;;;;1.74;100.00;104269.22;5267707;28;20027;-78
2023/02/06 01:09:02;;;;;;;69.32;6.85;;;;;;;1.70;100.00;104264.84;5284377;28;20114;-78
2023/02/06 01:11:34;;;;;;;52.72;6.95;;;;;;;1.69;100.00;104261.34;5259554;28;20036;-78
2023/02/06 01:14:04;;;;;;;47.53;6.15;;;;;;;1.68;100.00;104269.31;5250001;28;20027;-78
2023/02/06 01:16:35;;;;;;;50.38;7.47;;;;;;;1.66;100.00;104272.00;5249903;28;20400;-78
2023/02/06 01:19:05;;;;;;;55.88;6.40;;;;;;;1.64;100.00;104276.41;5284071;28;20016;-78
2023/02/06 01:21:37;;;;;;;66.90;6.65;;;;;;;1.63;100.00;104272.03;5281621;28;20023;-78
2023/02/06 01:24:08;;;;;;;59.40;7.57;;;;;;;1.64;100.00;104279.06;5289464;28;20142;-78
2023/02/06 01:26:38;;;;;;;56.60;7.22;;;;;;;1.65;100.00;104283.47;5235407;28;20485;-78
2023/02/06 01:29:08;;;;;;;47.95;7.05;;;;;;;1.64;100.00;104287.00;5249538;28;20046;-78
2023/02/06 01:31:39;;;;;;;62.05;12.07;;;;;;;1.64;100.00;104287.00;5249455;28;20560;-78
2023/02/06 01:34:11;;;;;;;42.97;6.30;;;;;;;1.64;100.00;104289.66;5267703;28;20392;-78
2023/02/06 01:36:41;;;;;;;55.47;8.32;;;;;;;1.60;100.00;104295.03;5253219;28;20027;-77
2023/02/06 01:39:12;;;;;;;41.88;6.40;;;;;;;1.58;100.00;104294.19;5259039;28;20016;-78
2023/02/06 01:41:42;;;;;;;49.63;6.63;;;;;;;1.55;100.00;104300.38;5248568;28;20072;-77
2023/02/06 01:44:16;;;;;;;55.63;6.43;;;;;;;1.57;100.00;104295.97;5281056;28;20418;-78
2023/02/06 01:46:51;;;;;;;48.75;6.60;;;;;;;1.65;100.00;104304.63;5281325;28;20032;-78
2023/02/06 01:49:26;;;;;;;65.57;9.95;;;;;;;1.60;100.00;104295.88;5267504;28;20115;-78
2023/02/06 01:52:04;;;;;;;58.75;9.85;;;;;;;1.53;100.00;104288.97;5267651;28;20046;-78
2023/02/06 01:54:36;;;;;;;49.95;6.85;;;;;;;1.59;100.00;104283.56;5267750;28;20023;-77
2023/02/06 01:57:09;;;;;;;48.78;6.90;;;;;;;1.68;100.00;104291.38;5279058;28;20024;-78
2023/02/06 01:59:43;;;;;;;65.13;8.73;;;;;;;1.63;100.00;104295.84;5267191;28;20020;-78
2023/02/06 02:02:13;;;;;;;54.78;7.07;;;;;;;1.53;100.00;104305.72;5268297;28;20028;-78
2023/02/06 02:04:45;;;;;;;41.45;6.20;;;;;;;1.45;100.00;104301.41;5261955;28;20036;-78
2023/02/06 02:07:34;;;;;;;54.42;7.10;;;;;;;1.34;100.00;104291.00;5270402;28;20019;-78
2023/02/06 02:10:04;;;;;;;58.88;6.80;;;;;;;1.29;100.00;104298.13;5275749;28;20362;-78
2023/02/06 02:12:35;;;;;;;54.65;6.28;;;;;;;1.24;100.00;104289.38;5267398;28;20022;-78
2023/02/06 02:15:06;;;;;;;46.25;6.18;;;;;;;1.20;100.00;104288.53;5280418;28;20034;-78
2023/02/06 02:17:42;;;;;;;54.80;5.40;;;;;;;1.16;100.00;104292.16;5287739;28;20024;-78
2023/02/06 02:20:42;;;;;;;53.63;6.03;;;;;;;1.18;100.00;104300.94;5271830;28;20089;-78
2023/02/06 02:23:34;;;;;;;47.67;6.57;;;;;;;1.19;100.00;104292.09;5267009;28;20084;-78
2023/02/06 02:26:24;;;;;;;41.88;6.25;;;;;;;1.17;100.00;104293.03;5259277;28;20095;-78
2023/02/06 02:29:26;;;;;;;45.30;7.30;;;;;;;1.19;100.00;104289.44;5266789;28;20431;-78
2023/02/06 02:32:27;;;;;;;52.45;6.20;;;;;;;1.20;100.00;104280.59;5266877;28;20077;-78
2023/02/06 02:35:16;;;;;;;43.13;6.13;;;;;;;1.20;100.00;104280.59;5269934;28;20033;-78
2023/02/06 02:38:21;;;;;;;44.05;6.60;;;;;;;1.18;100.00;104287.69;5269499;28;20020;-78
2023/02/06 02:41:08;;;;;;;51.80;7.53;;;;;;;1.16;100.00;104284.22;5275305;28;20028;-78
2023/02/06 02:43:43;;;;;;;46.45;7.60;;;;;;;1.16;100.00;104280.69;5267187;28;20508;-78
2023/02/06 02:46:15;;;;;;;;;;;;;;;1.13;100.00;104270.16;5280358;28;20026;-78
2023/02/06 02:48:49;;;;;;;51.00;6.18;;;;;;;1.11;100.00;104272.81;5266816;28;20347;-78
2023/02/06 02:51:20;;;;;;;48.80;6.60;;;;;;;1.09;100.00;104261.38;5265744;28;20473;-77
2023/02/06 02:53:50;;;;;;;49.85;6.78;;;;;;;1.10;100.00;104263.13;5265426;28;20023;-78
2023/02/06 02:56:24;;;;;;;46.15;5.95;;;;;;;1.10;100.00;104267.53;5266512;28;20376;-78
2023/02/06 02:59:06;;;;;;;45.08;7.03;;;;;;;1.10;100.00;104263.13;5250416;28;20042;-78
2023/02/06 03:02:14;;;;;;;35.53;5.63;;;;;;;1.10;100.00;104268.41;5274872;28;20480;-78
2023/02/06 03:05:06;;;;;;;48.05;7.95;;;;;;;1.12;100.00;104269.28;5266189;28;20020;-78
2023/02/06 03:07:44;;;;;;;50.33;6.00;;;;;;;1.15;100.00;104263.94;5265489;28;20077;-78
2023/02/06 03:10:51;;;;;;;46.88;7.20;;;;;;;1.15;100.00;104273.63;5247632;28;20028;-78
2023/02/06 03:13:40;;;;;;;37.30;5.05;;;;;;;1.16;100.00;104268.34;5248386;28;20035;-78
2023/02/06 03:16:48;;;;;;;45.95;6.43;;;;;;;1.16;100.00;104260.41;5265902;28;20042;-78
2023/02/06 03:19:26;;;;;;;47.42;8.13;;;;;;;1.19;100.00;104268.28;5274804;28;20548;-77
2023/02/06 03:21:59;;;;;;;37.45;6.35;;;;;;;1.21;100.00;104263.88;5283351;28;20106;-78
2023/02/06 03:24:42;;;;;;;52.97;7.32;;;;;;;1.19;100.00;104265.63;5266051;28;20432;-78
2023/02/06 03:27:15;;;;;;;48.63;5.72;;;;;;;1.10;100.00;104257.84;5247754;28;20016;-78
2023/02/06 03:29:49;;;;;;;47.22;5.45;;;;;;;0.99;100.00;104257.13;5247464;28;20462;-78
2023/02/06 03:32:24;;;;;;;30.92;7.88;;;;;;;0.91;100.00;104266.94;5266175;28;20028;-78
2023/02/06 03:35:01;;;;;;;39.83;4.95;;;;;;;1.03;100.00;104261.47;5265689;28;20500;-78
2023/02/06 03:37:35;;;;;;;39.28;5.53;;;;;;;1.08;100.00;104262.28;5247500;28;20050;-78
2023/02/06 03:40:07;;;;;;;31.67;6.03;;;;;;;1.09;100.00;104256.09;5266265;28;20111;-78
2023/02/06 03:42:41;;;;;;;41.15;6.97;;;;;;;1.00;100.00;104258.84;5255406;28;20031;-78
2023/02/06 03:45:16;;;;;;;41.17;6.63;;;;;;;0.88;100.00;104254.63;5265520;28;20054;-78
2023/02/06 03:47:48;;;;;;;40.75;7.05;;;;;;;0.83;100.00;104248.53;5264454;28;20046;-78
2023/02/06 03:50:19;;;;;;;47.13;6.05;;;;;;;0.76;100.00;104246.88;5247216;28;20020;-77
2023/02/06 03:52:51;;;;;;;34.13;4.20;;;;;;;0.60;100.00;104246.16;5278740;28;20024;-77
2023/02/06 03:55:23;;;;;;;27.73;4.13;;;;;;;0.45;100.00;104252.53;5237177;28;20020;-78
2023/02/06 03:58:00;;;;;;;46.67;8.52;;;;;;;0.34;100.00;104253.50;5264434;28;20066;-77
2023/02/06 04:00:32;;;;;;;45.25;5.68;;;;;;;0.26;100.00;104258.91;5278151;28;20034;-77
2023/02/06 04:03:03;;;;;;;30.15;5.20;;;;;;;0.16;100.00;104251.97;5272748;28;20026;-78
2023/02/06 04:05:34;;;;;;;34.42;5.47;;;;;;;0.08;100.00;104249.38;5285535;28;20110;-78
2023/02/06 04:08:05;;;;;;;35.15;4.93;;;;;;;0.02;100.00;104251.22;5278854;28;20110;-77
2023/02/06 04:10:35;;;;;;;34.65;6.55;;;;;;;-0.01;100.00;104245.06;5286449;28;20309;-77
2023/02/06 04:13:06;;;;;;;31.63;6.35;;;;;;;-0.02;100.00;104231.88;5279789;28;20026;-77
2023/02/06 04:15:36;;;;;;;48.67;5.75;;;;;;;-0.07;100.00;104237.22;5272759;28;20024;-77
2023/02/06 04:18:07;;;;;;;41.83;6.05;;;;;;;-0.12;100.00;104246.06;5268651;28;20445;-77
2023/02/06 04:20:39;;;;;;;36.88;6.28;;;;;;;-0.19;100.00;104244.38;5268933;28;20020;-77
2023/02/06 04:23:10;;;;;;;53.80;9.43;;;;;;;-0.26;100.00;104239.13;5268985;28;20063;-77
2023/02/06 04:25:40;;;;;;;43.67;6.10;;;;;;;-0.32;100.00;104239.19;5282919;28;20023;-78
2023/02/06 04:28:11;;;;;;;53.17;8.80;;;;;;;-0.40;100.00;104234.88;5269004;28;20039;-77
2023/02/06 04:30:41;;;;;;;50.30;7.07;;;;;;;-0.45;100.00;104231.38;5258896;28;20426;-77
2023/02/06 04:33:12;;;;;;;49.80;6.28;;;;;;;-0.50;100.00;104243.72;5287996;28;20023;-77
2023/02/06 04:35:42;;;;;;;56.72;6.50;;;;;;;-0.57;100.00;104251.69;5250925;28;20441;-78
2023/02/06 04:38:13;;;;;;;77.90;8.38;;;;;;;-0.61;100.00;104249.09;5271491;28;20153;-77
2023/02/06 04:40:44;;;;;;;59.17;9.27;;;;;;;-0.66;100.00;104253.53;5279520;28;20500;-77
2023/02/06 04:43:14;;;;;;;52.10;7.88;;;;;;;-0.72;100.00;104258.84;5268747;28;20473;-77
2023/02/06 04:45:45;;;;;;;41.92;8.18;;;;;;;-0.76;100.00;104265.88;5268593;28;20493;-77
2023/02/06 04:48:16;;;;;;;42.85;6.88;;;;;;;-0.77;100.00;104260.63;5273213;28;20051;-77
2023/02/06 04:50:48;;;;;;;44.08;6.18;;;;;;;-0.66;100.00;104275.50;5258797;28;20111;-77
2023/02/06 04:53:19;;;;;;;42.13;6.43;;;;;;;-0.64;100.00;104272.88;5289168;28;20027;-77
2023/02/06 04:55:49;;;;;;;39.10;6.35;;;;;;;-0.65;100.00;104272.00;5275218;28;20035;-77
2023/02/06 04:58:20;;;;;;;45.05;6.97;;;;;;;-0.74;100.00;104265.91;5269102;28;20389;-78
2023/02/06 05:00:50;;;;;;;54.60;6.95;;;;;;;-0.92;100.00;104256.34;5283905;28;20440;-77
2023/02/06 05:03:22;;;;;;;32.83;5.50;;;;;;;-1.00;100.00;104258.13;5263169;28;20301;-77
2023/02/06 05:05:53;;;;;;;35.65;5.68;;;;;;;-1.06;100.00;104256.41;5289694;28;20499;-77
2023/02/06 05:08:23;;;;;;;45.22;6.80;;;;;;;-1.06;100.00;104251.13;5277053;28;20024;-77
2023/02/06 05:10:54;;;;;;;37.38;6.93;;;;;;;-1.09;100.00;104254.66;5268365;28;20039;-77
2023/02/06 05:13:25;;;;;;;46.83;7.15;;;;;;;-1.14;100.00;104255.59;5265170;28;20033;-77
2023/02/06 05:16:00;;;;;;;31.67;4.75;;;;;;;-1.17;100.00;104255.59;5251509;28;20031;-77
2023/02/06 05:18:30;;;;;;;36.53;6.30;;;;;;;-1.15;100.00;104259.09;5286546;28;20019;-77
2023/02/06 05:21:01;;;;;;;37.22;5.93;;;;;;;-1.09;100.00;104253.78;5273856;28;20296;-77
2023/02/06 05:23:32;;;;;;;34.50;6.00;;;;;;;-1.08;100.00;104235.34;5249646;28;20073;-77
2023/02/06 05:26:03;;;;;;;28.58;5.78;;;;;;;-1.05;100.00;104250.28;5279202;28;20040;-77
2023/02/06 05:28:33;;;;;;;30.83;5.57;;;;;;;-1.08;100.00;104248.50;5283761;28;20024;-77
2023/02/06 05:31:04;;;;;;;27.67;5.47;;;;;;;-1.13;100.00;104252.06;5250002;28;20020;-77
2023/02/06 05:33:34;;;;;;;24.60;5.65;;;;;;;-1.20;100.00;104252.97;5267992;28;20485;-77
2023/02/06 05:36:07;;;;;;;35.42;6.70;;;;;;;-1.25;100.00;104252.13;5249443;28;20035;-77
2023/02/06 05:38:37;;;;;;;34.53;5.60;;;;;;;-1.29;100.00;104253.88;5275352;28;20023;-77
2023/02/06 05:41:08;;;;;;;27.95;5.28;;;;;;;-1.31;100.00;104251.28;5286670;28;20384;-77
2023/02/06 05:43:39;;;;;;;24.33;4.78;;;;;;;-1.35;100.00;104256.56;5249906;28;20056;-77
2023/02/06 05:46:11;;;;;;;35.08;5.80;;;;;;;-1.40;100.00;104253.94;5280970;28;20068;-77
2023/02/06 05:48:42;;;;;;;35.55;5.53;;;;;;;-1.43;100.00;104250.44;5267503;28;20475;-77
2023/02/06 05:51:12;;;;;;;42.40;5.43;;;;;;;-1.49;100.00;104240.78;5285896;28;20024;-77
2023/02/06 05:53:43;;;;;;;40.92;5.65;;;;;;;-1.57;100.00;104242.56;5258229;28;20027;-77
2023/02/06 05:56:14;;;;;;;73.18;7.25;;;;;;;-1.62;100.00;104233.81;5262704;28;20035;-77
2023/02/06 05:58:44;;;;;;;36.05;6.75;;;;;;;-1.66;100.00;104229.44;5279468;28;20022;-77
2023/02/06 06:01:15;;;;;;;33.03;6.82;;;;;;;-1.68;100.00;104237.34;5255909;28;20062;-77
2023/02/06 06:03:46;;;;;;;38.60;6.38;;;;;;;-1.68;100.00;104247.00;5269624;28;20059;-77
2023/02/06 06:06:16;;;;;;;15.45;5.50;;;;;;;-1.67;100.00;104254.88;5275548;28;20417;-77
2023/02/06 06:08:47;;;;;;;35.08;5.93;;;;;;;-1.60;100.00;104261.03;5273949;28;20036;-77
2023/02/06 06:11:17;;;;;;;43.00;6.60;;;;;;;-1.59;100.00;104262.78;5278625;28;20102;-77
2023/02/06 06:13:48;;;;;;;47.88;8.45;;;;;;;-1.57;100.00;104263.63;5262503;28;20027;-77
2023/02/06 06:16:18;;;;;;;42.63;6.55;;;;;;;-1.58;100.00;104264.53;5249204;28;20035;-77
2023/02/06 06:18:50;;;;;;;45.53;7.75;;;;;;;-1.57;100.00;104263.63;5280447;28;20026;-78
2023/02/06 06:21:21;;;;;;;67.90;8.57;;;;;;;-1.58;100.00;104278.56;5266867;28;20024;-77
2023/02/06 06:23:51;;;;;;;54.17;8.00;;;;;;;-1.60;100.00;104275.06;5267275;28;20556;-77
2023/02/06 06:26:22;;;;;;;46.88;7.10;;;;;;;-1.64;100.00;104273.31;5274928;28;20107;-76
2023/02/06 06:28:53;;;;;;;37.17;6.70;;;;;;;-1.67;100.00;104286.47;5273069;28;20111;-78
2023/02/06 06:31:24;;;;;;;68.57;6.97;;;;;;;-1.71;100.00;104290.00;5273614;28;20020;-78
2023/02/06 06:33:54;;;;;;;44.45;7.53;;;;;;;-1.75;100.00;104293.53;5267013;28;20072;-77
2023/02/06 06:36:25;;;;;;;57.00;9.45;;;;;;;-1.80;100.00;104286.53;5265710;28;20027;-77
2023/02/06 06:38:55;;;;;;;60.72;8.18;;;;;;;-1.88;100.00;104282.13;5275993;28;20103;-77
2023/02/06 06:41:26;;;;;;;43.75;5.88;;;;;;;-1.92;100.00;104279.50;5273363;28;20080;-77
2023/02/06 06:43:57;;;;;;;35.42;6.45;;;;;;;-1.92;100.00;104274.22;5287705;28;20472;-77
2023/02/06 06:46:28;;;;;;;67.30;9.60;;;;;;;-1.90;100.00;104267.25;5268450;28;20107;-77
2023/02/06 06:48:59;;;;;;;75.97;9.40;;;;;;;-1.86;100.00;104268.97;5265782;28;20909;-77
2023/02/06 06:51:30;;;;;;;77.13;8.68;;;;;;;-1.83;100.00;104266.34;5285729;28;20031;-78
2023/02/06 06:54:01;;;;;;;78.43;10.75;;;;;;;-1.80;100.00;104268.09;5273699;28;20026;-78
2023/02/06 06:56:32;;;;;;;89.10;13.40;;;;;;;-1.76;100.00;104275.09;5266035;28;20046;-78
2023/02/06 06:59:02;;;;;;;123.10;16.42;;;;;;;-1.73;100.00;104267.19;5249259;28;20062;-77
2023/02/06 07:01:33;;;;;;;96.95;16.33;;;;;;;-1.69;100.00;104264.56;5265356;28;20434;-78
2023/02/06 07:04:03;;;;;;;122.75;11.90;;;;;;;-1.66;100.00;104259.25;5279432;28;20050;-78
2023/02/06 07:06:34;;;;;;;76.00;11.45;;;;;;;-1.62;100.00;104254.88;5247644;28;20086;-78
2023/02/06 07:09:04;;;;;;;85.47;11.30;;;;;;;-1.56;100.00;104249.56;5234917;28;20102;-78
2023/02/06 07:11:35;;;;;;;110.25;12.23;;;;;;;-1.52;100.00;104261.00;5275475;28;20107;-77
2023/02/06 07:14:05;;;;;;;111.28;12.95;;;;;;;-1.51;100.00;104253.06;5265740;28;20020;-78
2023/02/06 07:16:36;;;;;;;57.50;8.25;;;;;;;-1.52;100.00;104258.34;5265918;28;20058;-77
2023/02/06 07:19:07;;;;;;;34.17;8.52;;;;;;;-1.52;100.00;104248.69;5285627;28;20077;-78
2023/02/06 07:21:37;;;;;;;63.63;8.10;;;;;;;-1.51;100.00;104250.44;5254954;28;20032;-76
2023/02/06 07:24:08;;;;;;;67.45;8.50;;;;;;;-1.52;100.00;104248.69;5273114;28;20226;-77
2023/02/06 07:26:40;;;;;;;59.08;9.00;;;;;;;-1.50;100.00;104241.69;5271179;28;20031;-76
2023/02/06 07:29:10;;;;;;;100.72;10.40;;;;;;;-1.47;100.00;104246.03;5265843;28;20051;-76
2023/02/06 07:31:41;;;;;;;82.10;10.07;;;;;;;-1.51;100.00;104234.63;5265514;28;20055;-76
2023/02/06 07:34:12;;;;;;;46.63;8.65;;;;;;;-1.48;100.00;104231.13;5266135;28;20024;-76
2023/02/06 07:36:42;;;;;;;72.47;9.10;;;;;;;-1.41;100.00;104235.47;5265291;28;20089;-76
2023/02/06 07:39:13;;;;;;;64.10;9.57;;;;;;;-1.34;100.00;104229.31;5265811;28;20077;-76
2023/02/06 07:41:45;;;;;;;88.65;9.38;;;;;;;-1.27;100.00;104231.03;5284487;28;20119;-76
2023/02/06 07:44:15;;;;;;;129.95;11.85;;;;;;;-1.26;100.00;104242.44;5272910;28;20024;-76
2023/02/06 07:46:46;;;;;;;129.57;12.15;;;;;;;-1.28;100.00;104233.69;5272649;28;20054;-76
2023/02/06 07:49:17;;;;;;;128.52;13.55;;;;;;;-1.30;100.00;104228.44;5272262;28;20028;-76
2023/02/06 07:51:47;;;;;;;112.03;12.30;;;;;;;-1.28;100.00;104242.47;5259565;28;20489;-78
2023/02/06 07:54:19;;;;;;;108.65;12.18;;;;;;;-1.21;100.00;104238.03;5265187;28;20081;-77
2023/02/06 07:56:49;;;;;;;82.50;12.27;;;;;;;-1.18;100.00;104240.66;5275241;28;20030;-77
2023/02/06 07:59:20;;;;;;;118.30;15.27;;;;;;;-1.14;100.00;104239.78;5280725;28;20012;-77
2023/02/06 08:01:51;;;;;;;123.35;16.15;;;;;;;-1.12;100.00;104233.59;5264862;28;20036;-78
2023/02/06 08:04:22;;;;;;;98.32;13.10;;;;;;;-1.09;100.00;104230.94;5265251;28;20024;-76
2023/02/06 08:06:53;;;;;;;45.17;10.52;;;;;;;-1.03;100.00;104230.03;5277667;28;20027;-76
2023/02/06 08:09:23;;;;;;;44.30;11.60;;;;;;;-0.93;100.00;104229.09;5272627;28;20027;-76
2023/02/06 08:11:54;;;;;;;48.83;12.55;;;;;;;-0.79;100.00;104237.81;5286264;28;20451;-77
2023/02/06 08:14:27;;;;;;;89.15;16.40;;;;;;;-0.63;100.00;104237.69;5267993;28;20031;-76
2023/02/06 08:16:57;;;;;;;166.38;19.60;;;;;;;-0.52;100.00;104225.28;5272268;28;20481;-76
2023/02/06 08:19:30;;;;;;;125.25;15.98;;;;;;;-0.49;100.00;104225.28;5277088;28;20030;-77
2023/02/06 08:22:00;;;;;;;98.00;13.75;;;;;;;-0.45;100.00;104229.66;5264872;28;20519;-77
2023/02/06 08:24:31;;;;;;;142.95;17.35;;;;;;;-0.39;100.00;104232.22;5264669;28;20020;-77
2023/02/06 08:27:01;;;;;;;123.13;16.60;;;;;;;-0.32;100.00;104233.91;5282536;28;20114;-77
2023/02/06 08:29:39;;;;;;;155.13;18.15;;;;;;;-0.23;100.00;104229.47;5285871;28;20036;-77
2023/02/06 08:32:10;;;;;;;120.45;16.00;;;;;;;-0.16;100.00;104221.44;5279367;28;20031;-76
2023/02/06 08:34:40;;;;;;;155.75;19.60;;;;;;;-0.05;100.00;104218.72;5264803;28;20020;-77
2023/02/06 08:37:11;;;;;;;218.73;22.73;;;;;;;-0.04;100.00;104218.72;5246257;28;20102;-76
2023/02/06 08:39:41;;;;;;;275.65;20.60;;;;;;;-0.04;100.00;104212.56;5278375;28;20055;-77
2023/02/06 08:42:11;;;;;;;139.95;17.98;;;;;;;-0.06;100.00;104207.28;5264542;28;20503;-76
2023/02/06 08:44:42;;;;;;;183.93;19.42;;;;;;;0.05;100.00;104201.00;5278665;28;20047;-77
2023/02/06 08:47:14;;;;;;;158.77;19.95;;;;;;;0.15;100.00;104205.31;5264913;28;20077;-75
2023/02/06 08:49:48;;;;;;;116.47;18.02;;;;;;;0.27;100.00;104199.03;5268174;28;20042;-75
2023/02/06 08:52:19;;;;;;;132.48;18.83;;;;;;;0.44;100.00;104202.31;5277915;28;20039;-75
2023/02/06 08:54:51;;;;;;;95.78;16.75;;;;;;;0.59;100.00;104193.34;5282250;28;20027;-75
2023/02/06 08:57:21;;;;;;;123.43;19.65;;;;;;;0.72;100.00;104198.44;5281972;28;20425;-76
2023/02/06 08:59:51;;;;;;;160.63;20.35;;;;;;;0.82;100.00;104207.13;5286798;28;20022;-76
2023/02/06 09:02:22;;;;;;;167.48;18.95;;;;;;;0.85;100.00;104211.47;5275186;28;20469;-75
2023/02/06 09:04:53;;;;;;;160.10;20.08;;;;;;;0.92;100.00;104214.03;5268770;28;20466;-75
2023/02/06 09:07:23;;;;;;;139.32;20.77;;;;;;;1.01;100.00;104205.97;5271432;28;20048;-77
2023/02/06 09:09:54;;;;;;;166.98;22.10;;;;;;;1.10;100.00;104206.72;5279058;28;20073;-75
2023/02/06 09:12:24;;;;;;;175.82;22.55;;;;;;;1.22;100.00;104209.19;5286499;28;20502;-75
2023/02/06 09:14:54;;;;;;;224.25;22.77;;;;;;;1.26;100.00;104202.97;5277875;28;20420;-75
2023/02/06 09:17:26;;;;;;;158.07;22.40;;;;;;;1.38;100.00;104199.25;5274148;28;20440;-75
2023/02/06 09:19:57;;;;;;;179.13;22.75;;;;;;;1.47;100.00;104199.09;5300057;28;20003;-75
2023/02/06 09:22:29;;;;;;;62.72;17.90;;;;;;;1.58;100.00;104190.97;5275647;28;20020;-75
2023/02/06 09:24:59;;;;;;;127.10;24.80;;;;;;;1.70;100.00;104203.97;5288908;28;20083;-76
2023/02/06 09:27:30;;;;;;;177.73;28.42;;;;;;;1.79;100.00;104199.41;5270881;28;20023;-75
2023/02/06 09:30:00;;;;;;;183.32;26.98;;;;;;;1.88;100.00;104202.78;5267501;28;20039;-75
2023/02/06 09:32:31;;;;;;;171.55;25.83;;;;;;;1.94;100.00;104194.72;5268171;28;20043;-75
2023/02/06 09:35:03;;;;;;;152.02;25.35;;;;;;;2.00;100.00;104198.13;5281865;28;20481;-76
2023/02/06 09:37:34;;;;;;;142.95;24.77;;;;;;;2.12;100.00;104199.69;5249099;28;20050;-76
2023/02/06 09:40:05;;;;;;;252.35;29.20;;;;;;;2.22;100.00;104203.91;5281127;28;20044;-76
2023/02/06 09:42:39;;;;;;;87.28;25.50;;;;;;;2.35;100.00;104212.47;5249610;28;20066;-76
2023/02/06 09:45:16;;;;;;;145.95;26.83;;;;;;;2.46;100.00;104202.53;5250269;28;20277;-76
2023/02/06 09:47:52;;;;;;;213.50;29.48;;;;;;;2.50;100.00;104198.03;5251006;28;20020;-75
2023/02/06 09:50:43;;;;;;;119.43;26.75;;;;;;;2.49;100.00;104199.81;5260494;28;20020;-76
2023/02/06 09:53:40;;;;;;;139.82;26.73;;;;;;;2.62;100.00;104203.09;5249112;28;20028;-76
2023/02/06 09:56:35;;;;;;;88.43;25.70;;;;;;;2.81;100.00;104196.47;5252947;28;20031;-75
2023/02/06 09:59:43;;;;;;;123.45;31.92;;;;;;;2.94;100.00;104197.06;5274276;28;20373;-76
2023/02/06 10:02:35;;;;;;;131.93;29.85;;;;;;;2.98;100.00;104190.78;5287209;28;20024;-76
2023/02/06 10:05:20;;;;;;;143.38;33.42;;;;;;;2.94;100.00;104193.53;5260450;28;20026;-75
2023/02/06 10:08:25;;;;;;;106.28;36.92;;;;;;;3.09;100.00;104174.59;5266518;28;20085;-75
2023/02/06 10:10:59;;;;;;;140.75;48.67;;;;;;;3.27;100.00;104165.34;5267615;28;20023;-75
2023/02/06 10:13:48;;;;;;;161.53;48.37;;;;;;;3.38;100.00;104161.50;5256500;28;20077;-75
2023/02/06 10:16:31;;;;;;;149.38;42.78;;;;;;;3.46;100.00;104155.97;5267201;28;20377;-75
2023/02/06 10:19:10;;;;;;;167.88;51.45;;;;;;;3.53;100.00;104156.72;5266527;28;20027;-75
2023/02/06 10:21:48;;;;;;;138.07;38.10;;;;;;;3.52;100.00;104155.84;5280403;28;20016;-76
2023/02/06 10:24:43;;;;;;;126.30;37.78;;;;;;;3.63;100.00;104148.47;5267237;28;20055;-76
2023/02/06 10:27:14;;;;;;;139.93;38.90;;;;;;;3.75;100.00;104157.00;5266570;28;20024;-76
2023/02/06 10:29:46;;;;;;;91.38;31.48;;;;;;;3.90;100.00;104149.50;5261737;28;20023;-76
2023/02/06 10:32:35;;;;;;;109.65;34.15;;;;;;;4.06;100.00;104141.09;5248535;28;20031;-76
2023/02/06 10:35:15;;;;;;;89.43;27.33;;;;;;;4.03;100.00;104146.50;5284299;28;20024;-75
2023/02/06 10:38:03;;;;;;;86.13;26.67;;;;;;;4.13;100.00;104148.00;5287182;28;20028;-76
2023/02/06 10:41:07;;;;;;;84.63;25.17;;;;;;;4.29;100.00;104153.72;5275892;28;20387;-76
2023/02/06 10:44:01;;;;;;;97.55;26.00;;;;;;;4.37;100.00;104162.38;5266511;28;20485;-76
2023/02/06 10:46:50;;;;;;;98.55;27.98;;;;;;;4.25;100.00;104160.91;5284429;28;20489;-75
2023/02/06 10:49:45;;;;;;;99.85;27.90;;;;;;;4.37;100.00;104157.03;5273399;28;20393;-75
2023/02/06 10:52:30;;;;;;;88.03;26.08;;;;;;;4.45;100.00;104167.44;5275563;28;20054;-76
2023/02/06 10:55:16;;;;;;;84.50;25.80;;;;;;;4.31;100.00;104175.81;5256251;28;20024;-75
2023/02/06 10:57:50;;;;;;;72.85;24.27;;;;;;;4.29;100.00;104172.34;5269448;28;20266;-76
2023/02/06 11:00:24;;;;;;;81.47;24.98;;;;;;;4.27;100.00;104180.38;5279476;28;20019;-76
2023/02/06 11:03:16;;;;;;;86.05;24.40;;;;;;;4.29;100.00;104177.66;5266981;28;20062;-76
2023/02/06 11:05:47;;;;;;;70.40;23.38;;;;;;;4.34;100.00;104176.59;5247880;28;20031;-75
2023/02/06 11:08:25;;;;;;;75.50;21.13;;;;;;;4.36;100.00;104182.72;5247553;28;20028;-76
2023/02/06 11:10:56;;;;;;;76.30;22.42;;;;;;;4.39;100.00;104176.47;5278985;28;20293;-76
2023/02/06 11:13:33;;;;;;;76.88;23.35;;;;;;;4.52;100.00;104169.88;5279203;28;20160;-76
2023/02/06 11:16:07;;;;;;;78.10;23.77;;;;;;;4.70;100.00;104159.59;5267739;28;20110;-76
2023/02/06 11:18:42;;;;;;;74.45;25.00;;;;;;;4.79;100.00;104160.19;5268493;28;20031;-76
2023/02/06 11:21:33;;;;;;;74.63;23.60;;;;;;;4.79;100.00;104160.19;5268567;28;20029;-75
2023/02/06 11:24:23;;;;;;;62.85;21.73;;;;;;;4.73;100.00;104175.47;5247236;28;20024;-75
2023/02/06 11:26:58;;;;;;;75.22;23.73;;;;;;;4.59;100.00;104165.25;5278758;28;20024;-75
2023/02/06 11:29:35;;;;;;;68.28;20.20;;;;;;;4.64;100.00;104158.00;5265541;28;20371;-76
2023/02/06 11:32:07;;;;;;;57.70;18.13;;;;;;;4.63;100.00;104162.44;5247850;28;20024;-75
2023/02/06 11:34:50;;;;;;;65.82;20.15;;;;;;;4.63;100.00;104157.13;5279301;28;20061;-76
2023/02/06 11:37:50;;;;;;;57.03;18.27;;;;;;;4.77;100.00;104151.38;5265520;28;20036;-76
2023/02/06 11:40:24;;;;;;;49.35;17.23;;;;;;;5.02;100.00;104140.84;5246776;28;20539;-76
2023/02/06 11:43:15;;;;;;;48.20;14.80;;;;;;;5.19;100.00;104141.13;5265480;28;20074;-76